Roper, North Carolina
Current Conditions -  °F | °C
As of 1:55 AM on Thursday 23 Oct 2014 (Local Time) from KEDE Reporting Station
Broken Clouds Broken Clouds  
Wind Chill: 54°   Ceiling: 3500
Heat Index: 54°   Visibility: 10mi
Dew Point: 46°   Wind: 13mph
Humidity: 75%   Direction: 320°NW
Pressure: 29.93"   Gusts: 18mph
Location:  35.88°N, 76.62°W
Report Text: KEDE 230555Z AUTO 32011G16KT 10SM BKN035 12/08 A2993 RMK AO2 T01200076 10140 20120 401450115
Loading
Personal Weather Stations






























Interactive Weather Map
Tropical Storm Tracking
New forecast layout! Learn more

10-Day Weather Forecast

Advertisements
Track Severe Weather on mobile